Almonesson, New Jersey
Current Conditions -  °F | °C
As of 11:54 PM on Monday 26 Jan 2015 (Local Time) from KPHL Reporting Station
Overcast Overcast  
Wind Chill: 17°   Ceiling: 2200
Heat Index: 29°   Visibility: 10mi
Dew Point: 21°   Wind: 17mph
Humidity: 72%   Direction: 20°NNE
Pressure: 29.71"   Gusts: 23mph
Location:  39.8266°N, 75.1276°W
Report Text: KPHL 270454Z 02015G20KT 10SM BKN022 OVC035 M02/M06 A2971 RMK AO2 SNE07 SLP060 P0000 T10171061 400111028
Loading
Personal Weather Stations






























Interactive Weather Map New forecast layout! Learn more

10-Day Weather Forecast

Advertisements
Track Severe Weather on mobile